Ana Sayfa
METAR-TAF:

METAR-TAF

Havaalanları :

Frederick, Oklahoma, Amerika Birleşik Devletleri

Enlem: 34-20-40N, Boylam: 098-58-59W, yükseklik: 382 m

Güncel hava durumu gözlemi

Rapor saat 11:53 UTC de 19 dakika önce yapıldı.
Rüzgar güneydoğudan 8 kt
Sıcaklık 23°C
Nem 89%
Basınç 1009 hPa
Görüş mesafesi: 12.9 km
Açık gökyüzü

METAR: KFDR 161153Z AUTO 14008KT 8SM CLR 23/21 A2980 RMK AO2 RAE12 SLP072 P0002 60005 70005 T02280211 10261 20222 51007

Saat: 07:12 (12:12 UTC)


TAF: eksik

4.000'den fazla havaalanı için hava durumu gözlemleri ve tahminleri (METAR ve TAF raporları).

Kullanılabilir istasyonlar harita üzerinde sarı ve kırmızı noktalarla gösterilir.

İstasyonun adını görmek için fareyi noktanın üzerinde gezdirin.

Sonrasında hava gözlem ve tahminlerini görmek için tıklayın.

Haritayı değiştirmek için: yaklaştırmak için siyah artı işaretli yeşil düğmeye ve uzaklaştırmak için de eksi işaretli düğmeye hızla tıklayın; bitişik haritalar için yeşil okları kullanın.


METAR-TAF: